sensor_id;sensor_type;location;lat;lon;timestamp;P1;durP1;ratioP1;P2;durP2;ratioP2
7495;SDS011;3789;47.064;15.482;2023-12-20T00:01:00;4.90;;;3.70;;
7495;SDS011;3789;47.064;15.482;2023-12-20T00:03:42;6.93;;;4.37;;
7495;SDS011;3789;47.064;15.482;2023-12-20T00:06:13;6.40;;;4.10;;
7495;SDS011;3789;47.064;15.482;2023-12-20T00:09:13;4.80;;;4.00;;
7495;SDS011;3789;47.064;15.482;2023-12-20T00:11:44;5.50;;;3.90;;
7495;SDS011;3789;47.064;15.482;2023-12-20T00:14:44;4.10;;;3.70;;
7495;SDS011;3789;47.064;15.482;2023-12-20T00:17:34;6.23;;;4.03;;
7495;SDS011;3789;47.064;15.482;2023-12-20T00:20:11;6.20;;;3.80;;
7495;SDS011;3789;47.064;15.482;2023-12-20T00:23:17;5.63;;;4.07;;
7495;SDS011;3789;47.064;15.482;2023-12-20T00:25:58;5.43;;;4.10;;
7495;SDS011;3789;47.064;15.482;2023-12-20T00:28:33;6.57;;;4.60;;
7495;SDS011;3789;47.064;15.482;2023-12-20T00:31:13;6.33;;;3.90;;
7495;SDS011;3789;47.064;15.482;2023-12-20T00:37:22;4.27;;;3.77;;
7495;SDS011;3789;47.064;15.482;2023-12-20T00:40:28;6.10;;;3.97;;
7495;SDS011;3789;47.064;15.482;2023-12-20T00:43:14;5.67;;;4.47;;
7495;SDS011;3789;47.064;15.482;2023-12-20T00:46:11;7.57;;;4.60;;
7495;SDS011;3789;47.064;15.482;2023-12-20T00:49:01;5.93;;;3.90;;
7495;SDS011;3789;47.064;15.482;2023-12-20T00:52:04;5.70;;;4.50;;
7495;SDS011;3789;47.064;15.482;2023-12-20T00:55:12;5.90;;;4.20;;
7495;SDS011;3789;47.064;15.482;2023-12-20T00:57:52;4.37;;;3.70;;
7495;SDS011;3789;47.064;15.482;2023-12-20T01:00:27;6.73;;;4.67;;
7495;SDS011;3789;47.064;15.482;2023-12-20T01:03:14;5.97;;;4.10;;
7495;SDS011;3789;47.064;15.482;2023-12-20T01:09:16;5.17;;;4.00;;
7495;SDS011;3789;47.064;15.482;2023-12-20T01:11:45;6.27;;;4.77;;
7495;SDS011;3789;47.064;15.482;2023-12-20T01:14:13;6.27;;;4.83;;
7495;SDS011;3789;47.064;15.482;2023-12-20T01:16:40;7.80;;;4.70;;
7495;SDS011;3789;47.064;15.482;2023-12-20T01:19:07;7.10;;;4.63;;
7495;SDS011;3789;47.064;15.482;2023-12-20T01:21:35;6.77;;;4.87;;
7495;SDS011;3789;47.064;15.482;2023-12-20T01:24:03;4.97;;;3.93;;
7495;SDS011;3789;47.064;15.482;2023-12-20T01:26:30;6.30;;;4.27;;
7495;SDS011;3789;47.064;15.482;2023-12-20T01:28:57;6.40;;;4.33;;
7495;SDS011;3789;47.064;15.482;2023-12-20T01:31:26;6.50;;;4.63;;
7495;SDS011;3789;47.064;15.482;2023-12-20T01:33:53;5.73;;;3.80;;
7495;SDS011;3789;47.064;15.482;2023-12-20T01:36:21;5.67;;;4.13;;
7495;SDS011;3789;47.064;15.482;2023-12-20T01:38:49;6.57;;;4.80;;
7495;SDS011;3789;47.064;15.482;2023-12-20T01:41:16;5.87;;;4.17;;
7495;SDS011;3789;47.064;15.482;2023-12-20T01:43:44;6.27;;;4.43;;
7495;SDS011;3789;47.064;15.482;2023-12-20T01:46:17;6.37;;;3.90;;
7495;SDS011;3789;47.064;15.482;2023-12-20T01:48:48;7.33;;;4.07;;
7495;SDS011;3789;47.064;15.482;2023-12-20T01:51:16;5.70;;;4.30;;
7495;SDS011;3789;47.064;15.482;2023-12-20T01:53:44;5.73;;;4.07;;
7495;SDS011;3789;47.064;15.482;2023-12-20T01:56:11;5.43;;;4.00;;
7495;SDS011;3789;47.064;15.482;2023-12-20T01:58:41;7.40;;;4.30;;
7495;SDS011;3789;47.064;15.482;2023-12-20T02:01:12;6.00;;;4.63;;
7495;SDS011;3789;47.064;15.482;2023-12-20T02:03:42;10.53;;;4.57;;
7495;SDS011;3789;47.064;15.482;2023-12-20T02:06:11;6.53;;;4.37;;
7495;SDS011;3789;47.064;15.482;2023-12-20T02:08:38;4.83;;;3.87;;
7495;SDS011;3789;47.064;15.482;2023-12-20T02:11:06;7.47;;;4.70;;
7495;SDS011;3789;47.064;15.482;2023-12-20T02:13:34;5.83;;;3.97;;
7495;SDS011;3789;47.064;15.482;2023-12-20T02:16:01;5.80;;;4.20;;
7495;SDS011;3789;47.064;15.482;2023-12-20T02:18:29;7.70;;;4.30;;
7495;SDS011;3789;47.064;15.482;2023-12-20T02:20:56;6.47;;;4.60;;
7495;SDS011;3789;47.064;15.482;2023-12-20T02:23:24;5.63;;;3.83;;
7495;SDS011;3789;47.064;15.482;2023-12-20T02:25:51;7.13;;;4.57;;
7495;SDS011;3789;47.064;15.482;2023-12-20T02:28:19;6.70;;;3.97;;
7495;SDS011;3789;47.064;15.482;2023-12-20T02:30:48;5.63;;;3.50;;
7495;SDS011;3789;47.064;15.482;2023-12-20T02:33:16;5.13;;;4.03;;
7495;SDS011;3789;47.064;15.482;2023-12-20T02:35:44;5.57;;;4.37;;
7495;SDS011;3789;47.064;15.482;2023-12-20T02:38:11;6.23;;;4.50;;
7495;SDS011;3789;47.064;15.482;2023-12-20T02:40:39;7.93;;;4.47;;
7495;SDS011;3789;47.064;15.482;2023-12-20T02:43:15;5.77;;;4.07;;
7495;SDS011;3789;47.064;15.482;2023-12-20T02:45:43;4.77;;;4.07;;
7495;SDS011;3789;47.064;15.482;2023-12-20T02:48:10;6.13;;;4.20;;
7495;SDS011;3789;47.064;15.482;2023-12-20T02:50:38;6.93;;;4.20;;
7495;SDS011;3789;47.064;15.482;2023-12-20T02:53:05;5.47;;;3.87;;
7495;SDS011;3789;47.064;15.482;2023-12-20T02:55:32;5.80;;;4.40;;
7495;SDS011;3789;47.064;15.482;2023-12-20T02:58:00;5.90;;;4.20;;
7495;SDS011;3789;47.064;15.482;2023-12-20T03:00:27;6.97;;;4.10;;
7495;SDS011;3789;47.064;15.482;2023-12-20T03:02:56;6.17;;;4.10;;
7495;SDS011;3789;47.064;15.482;2023-12-20T03:05:26;5.53;;;3.60;;
7495;SDS011;3789;47.064;15.482;2023-12-20T03:07:54;4.60;;;3.83;;
7495;SDS011;3789;47.064;15.482;2023-12-20T03:10:21;4.40;;;3.80;;
7495;SDS011;3789;47.064;15.482;2023-12-20T03:12:52;5.67;;;3.37;;
7495;SDS011;3789;47.064;15.482;2023-12-20T03:15:20;4.37;;;3.97;;
7495;SDS011;3789;47.064;15.482;2023-12-20T03:17:47;5.20;;;3.97;;
7495;SDS011;3789;47.064;15.482;2023-12-20T03:20:15;5.87;;;4.00;;
7495;SDS011;3789;47.064;15.482;2023-12-20T03:22:43;7.27;;;4.13;;
7495;SDS011;3789;47.064;15.482;2023-12-20T03:25:10;6.33;;;3.90;;
7495;SDS011;3789;47.064;15.482;2023-12-20T03:27:38;4.20;;;3.77;;
7495;SDS011;3789;47.064;15.482;2023-12-20T03:30:06;5.77;;;4.50;;
7495;SDS011;3789;47.064;15.482;2023-12-20T03:32:34;5.03;;;3.87;;
7495;SDS011;3789;47.064;15.482;2023-12-20T03:35:01;3.93;;;3.57;;
7495;SDS011;3789;47.064;15.482;2023-12-20T03:37:29;4.70;;;3.97;;
7495;SDS011;3789;47.064;15.482;2023-12-20T03:39:56;4.47;;;3.60;;
7495;SDS011;3789;47.064;15.482;2023-12-20T03:42:24;5.63;;;3.80;;
7495;SDS011;3789;47.064;15.482;2023-12-20T03:44:52;5.30;;;4.27;;
7495;SDS011;3789;47.064;15.482;2023-12-20T03:47:19;5.30;;;3.67;;
7495;SDS011;3789;47.064;15.482;2023-12-20T03:49:46;5.17;;;4.07;;
7495;SDS011;3789;47.064;15.482;2023-12-20T03:52:14;4.60;;;3.73;;
7495;SDS011;3789;47.064;15.482;2023-12-20T03:54:42;6.53;;;4.00;;
7495;SDS011;3789;47.064;15.482;2023-12-20T03:57:09;3.63;;;3.00;;
7495;SDS011;3789;47.064;15.482;2023-12-20T03:59:37;4.47;;;4.07;;
7495;SDS011;3789;47.064;15.482;2023-12-20T04:02:05;6.50;;;3.80;;
7495;SDS011;3789;47.064;15.482;2023-12-20T04:04:32;3.73;;;3.43;;
7495;SDS011;3789;47.064;15.482;2023-12-20T04:07:00;4.93;;;3.60;;
7495;SDS011;3789;47.064;15.482;2023-12-20T04:09:27;5.33;;;3.57;;
7495;SDS011;3789;47.064;15.482;2023-12-20T04:11:55;6.23;;;3.90;;
7495;SDS011;3789;47.064;15.482;2023-12-20T04:14:22;5.27;;;3.93;;
7495;SDS011;3789;47.064;15.482;2023-12-20T04:16:50;5.10;;;4.00;;
7495;SDS011;3789;47.064;15.482;2023-12-20T04:19:18;5.77;;;4.00;;
7495;SDS011;3789;47.064;15.482;2023-12-20T04:21:46;5.33;;;3.93;;
7495;SDS011;3789;47.064;15.482;2023-12-20T04:24:14;4.27;;;3.80;;
7495;SDS011;3789;47.064;15.482;2023-12-20T04:26:41;5.13;;;3.80;;
7495;SDS011;3789;47.064;15.482;2023-12-20T04:29:08;5.27;;;3.60;;
7495;SDS011;3789;47.064;15.482;2023-12-20T04:31:36;6.33;;;4.17;;
7495;SDS011;3789;47.064;15.482;2023-12-20T04:34:04;4.83;;;3.67;;
7495;SDS011;3789;47.064;15.482;2023-12-20T04:36:31;5.17;;;3.90;;
7495;SDS011;3789;47.064;15.482;2023-12-20T04:38:58;5.53;;;4.27;;
7495;SDS011;3789;47.064;15.482;2023-12-20T04:41:26;5.37;;;4.00;;
7495;SDS011;3789;47.064;15.482;2023-12-20T04:43:54;7.17;;;3.77;;
7495;SDS011;3789;47.064;15.482;2023-12-20T04:46:21;5.03;;;3.83;;
7495;SDS011;3789;47.064;15.482;2023-12-20T04:48:49;6.83;;;4.60;;
7495;SDS011;3789;47.064;15.482;2023-12-20T04:51:16;5.30;;;3.93;;
7495;SDS011;3789;47.064;15.482;2023-12-20T04:53:44;5.40;;;4.10;;
7495;SDS011;3789;47.064;15.482;2023-12-20T04:56:11;5.63;;;4.17;;
7495;SDS011;3789;47.064;15.482;2023-12-20T04:58:39;4.63;;;3.60;;
7495;SDS011;3789;47.064;15.482;2023-12-20T05:01:06;5.93;;;4.40;;
7495;SDS011;3789;47.064;15.482;2023-12-20T05:03:35;5.47;;;4.20;;
7495;SDS011;3789;47.064;15.482;2023-12-20T05:06:03;6.13;;;4.27;;
7495;SDS011;3789;47.064;15.482;2023-12-20T05:08:30;5.03;;;4.17;;
7495;SDS011;3789;47.064;15.482;2023-12-20T05:10:58;5.50;;;4.30;;
7495;SDS011;3789;47.064;15.482;2023-12-20T05:13:25;4.47;;;3.53;;
7495;SDS011;3789;47.064;15.482;2023-12-20T05:16:07;4.23;;;3.70;;
7495;SDS011;3789;47.064;15.482;2023-12-20T05:18:35;4.90;;;4.00;;
7495;SDS011;3789;47.064;15.482;2023-12-20T05:21:03;6.23;;;4.13;;
7495;SDS011;3789;47.064;15.482;2023-12-20T05:23:30;5.43;;;4.40;;
7495;SDS011;3789;47.064;15.482;2023-12-20T05:25:58;7.30;;;4.83;;
7495;SDS011;3789;47.064;15.482;2023-12-20T05:28:25;8.37;;;4.70;;
7495;SDS011;3789;47.064;15.482;2023-12-20T05:30:53;6.50;;;4.10;;
7495;SDS011;3789;47.064;15.482;2023-12-20T05:33:21;4.60;;;3.70;;
7495;SDS011;3789;47.064;15.482;2023-12-20T05:35:49;4.43;;;3.93;;
7495;SDS011;3789;47.064;15.482;2023-12-20T05:38:16;5.33;;;4.43;;
7495;SDS011;3789;47.064;15.482;2023-12-20T05:40:44;6.50;;;3.77;;
7495;SDS011;3789;47.064;15.482;2023-12-20T05:43:12;4.17;;;3.73;;
7495;SDS011;3789;47.064;15.482;2023-12-20T05:45:39;5.83;;;3.50;;
7495;SDS011;3789;47.064;15.482;2023-12-20T05:48:07;5.80;;;4.20;;
7495;SDS011;3789;47.064;15.482;2023-12-20T05:50:34;5.73;;;4.40;;
7495;SDS011;3789;47.064;15.482;2023-12-20T05:53:03;5.67;;;4.27;;
7495;SDS011;3789;47.064;15.482;2023-12-20T05:55:30;6.47;;;4.03;;
7495;SDS011;3789;47.064;15.482;2023-12-20T05:57:58;4.73;;;3.70;;
7495;SDS011;3789;47.064;15.482;2023-12-20T06:00:27;4.57;;;2.87;;
7495;SDS011;3789;47.064;15.482;2023-12-20T06:02:55;3.80;;;3.50;;
7495;SDS011;3789;47.064;15.482;2023-12-20T06:05:22;4.80;;;3.47;;
7495;SDS011;3789;47.064;15.482;2023-12-20T06:07:49;4.87;;;3.27;;
7495;SDS011;3789;47.064;15.482;2023-12-20T06:10:17;2.90;;;2.70;;
7495;SDS011;3789;47.064;15.482;2023-12-20T06:12:45;5.33;;;3.67;;
7495;SDS011;3789;47.064;15.482;2023-12-20T06:15:17;4.10;;;3.20;;
7495;SDS011;3789;47.064;15.482;2023-12-20T06:17:44;3.33;;;2.87;;
7495;SDS011;3789;47.064;15.482;2023-12-20T06:20:14;4.67;;;3.37;;
7495;SDS011;3789;47.064;15.482;2023-12-20T06:22:42;3.60;;;3.07;;
7495;SDS011;3789;47.064;15.482;2023-12-20T06:25:10;3.83;;;3.30;;
7495;SDS011;3789;47.064;15.482;2023-12-20T06:27:37;3.67;;;2.93;;
7495;SDS011;3789;47.064;15.482;2023-12-20T06:30:04;5.57;;;3.00;;
7495;SDS011;3789;47.064;15.482;2023-12-20T06:32:33;3.90;;;3.00;;
7495;SDS011;3789;47.064;15.482;2023-12-20T06:35:02;4.00;;;3.60;;
7495;SDS011;3789;47.064;15.482;2023-12-20T06:37:31;3.90;;;3.47;;
7495;SDS011;3789;47.064;15.482;2023-12-20T06:39:59;3.67;;;3.17;;
7495;SDS011;3789;47.064;15.482;2023-12-20T06:42:26;4.27;;;3.53;;
7495;SDS011;3789;47.064;15.482;2023-12-20T06:44:56;3.13;;;2.77;;
7495;SDS011;3789;47.064;15.482;2023-12-20T06:47:23;4.67;;;2.93;;
7495;SDS011;3789;47.064;15.482;2023-12-20T06:49:51;2.90;;;2.70;;
7495;SDS011;3789;47.064;15.482;2023-12-20T06:52:19;3.60;;;2.37;;
7495;SDS011;3789;47.064;15.482;2023-12-20T06:54:47;3.43;;;2.63;;
7495;SDS011;3789;47.064;15.482;2023-12-20T06:57:14;3.10;;;2.80;;
7495;SDS011;3789;47.064;15.482;2023-12-20T06:59:41;4.20;;;2.50;;
7495;SDS011;3789;47.064;15.482;2023-12-20T07:02:09;3.37;;;2.73;;
7495;SDS011;3789;47.064;15.482;2023-12-20T07:04:40;4.03;;;2.80;;
7495;SDS011;3789;47.064;15.482;2023-12-20T07:07:08;4.13;;;2.90;;
7495;SDS011;3789;47.064;15.482;2023-12-20T07:09:36;4.17;;;3.27;;
7495;SDS011;3789;47.064;15.482;2023-12-20T07:12:04;4.53;;;3.20;;
7495;SDS011;3789;47.064;15.482;2023-12-20T07:14:32;4.40;;;3.60;;
7495;SDS011;3789;47.064;15.482;2023-12-20T07:16:59;5.50;;;2.90;;
7495;SDS011;3789;47.064;15.482;2023-12-20T07:19:27;4.10;;;3.47;;
7495;SDS011;3789;47.064;15.482;2023-12-20T07:21:54;3.87;;;3.13;;
7495;SDS011;3789;47.064;15.482;2023-12-20T07:24:21;5.93;;;3.40;;
7495;SDS011;3789;47.064;15.482;2023-12-20T07:26:49;3.93;;;3.50;;
7495;SDS011;3789;47.064;15.482;2023-12-20T07:29:17;4.43;;;3.23;;
7495;SDS011;3789;47.064;15.482;2023-12-20T07:31:45;4.13;;;3.43;;
7495;SDS011;3789;47.064;15.482;2023-12-20T07:34:12;4.90;;;3.37;;
7495;SDS011;3789;47.064;15.482;2023-12-20T07:36:40;4.30;;;3.43;;
7495;SDS011;3789;47.064;15.482;2023-12-20T07:39:08;4.10;;;3.70;;
7495;SDS011;3789;47.064;15.482;2023-12-20T07:41:35;4.07;;;3.67;;
7495;SDS011;3789;47.064;15.482;2023-12-20T07:44:04;4.13;;;3.50;;
7495;SDS011;3789;47.064;15.482;2023-12-20T07:46:31;4.27;;;3.23;;
7495;SDS011;3789;47.064;15.482;2023-12-20T07:48:59;5.77;;;3.17;;
7495;SDS011;3789;47.064;15.482;2023-12-20T07:51:26;5.67;;;3.30;;
7495;SDS011;3789;47.064;15.482;2023-12-20T07:53:53;5.23;;;3.77;;
7495;SDS011;3789;47.064;15.482;2023-12-20T07:56:21;4.90;;;3.40;;
7495;SDS011;3789;47.064;15.482;2023-12-20T07:58:49;4.80;;;3.33;;
7495;SDS011;3789;47.064;15.482;2023-12-20T08:01:19;3.83;;;3.07;;
7495;SDS011;3789;47.064;15.482;2023-12-20T08:03:48;4.73;;;3.00;;
7495;SDS011;3789;47.064;15.482;2023-12-20T08:06:18;4.17;;;3.03;;
7495;SDS011;3789;47.064;15.482;2023-12-20T08:08:45;5.10;;;3.47;;
7495;SDS011;3789;47.064;15.482;2023-12-20T08:11:24;6.10;;;4.07;;
7495;SDS011;3789;47.064;15.482;2023-12-20T08:13:51;5.37;;;3.73;;
7495;SDS011;3789;47.064;15.482;2023-12-20T08:16:18;4.03;;;3.40;;
7495;SDS011;3789;47.064;15.482;2023-12-20T08:18:47;6.13;;;3.40;;
7495;SDS011;3789;47.064;15.482;2023-12-20T08:21:14;5.20;;;4.00;;
7495;SDS011;3789;47.064;15.482;2023-12-20T08:23:42;4.90;;;4.33;;
7495;SDS011;3789;47.064;15.482;2023-12-20T08:26:09;5.90;;;4.23;;
7495;SDS011;3789;47.064;15.482;2023-12-20T08:28:37;6.20;;;4.40;;
7495;SDS011;3789;47.064;15.482;2023-12-20T08:31:04;4.43;;;3.70;;
7495;SDS011;3789;47.064;15.482;2023-12-20T08:33:32;6.73;;;4.37;;
7495;SDS011;3789;47.064;15.482;2023-12-20T08:35:59;6.00;;;3.90;;
7495;SDS011;3789;47.064;15.482;2023-12-20T08:38:27;5.43;;;3.70;;
7495;SDS011;3789;47.064;15.482;2023-12-20T08:40:54;4.30;;;3.90;;
7495;SDS011;3789;47.064;15.482;2023-12-20T08:43:21;5.43;;;4.03;;
7495;SDS011;3789;47.064;15.482;2023-12-20T08:45:51;4.50;;;3.90;;
7495;SDS011;3789;47.064;15.482;2023-12-20T08:48:18;5.17;;;3.90;;
7495;SDS011;3789;47.064;15.482;2023-12-20T08:50:46;5.17;;;3.80;;
7495;SDS011;3789;47.064;15.482;2023-12-20T08:53:15;8.97;;;5.33;;
7495;SDS011;3789;47.064;15.482;2023-12-20T08:55:43;11.50;;;6.77;;
7495;SDS011;3789;47.064;15.482;2023-12-20T08:58:10;20.73;;;13.43;;
7495;SDS011;3789;47.064;15.482;2023-12-20T09:00:38;15.97;;;10.40;;
7495;SDS011;3789;47.064;15.482;2023-12-20T09:03:06;18.73;;;10.00;;
7495;SDS011;3789;47.064;15.482;2023-12-20T09:05:33;15.70;;;9.30;;
7495;SDS011;3789;47.064;15.482;2023-12-20T09:08:00;16.00;;;10.60;;
7495;SDS011;3789;47.064;15.482;2023-12-20T09:10:28;16.87;;;9.87;;
7495;SDS011;3789;47.064;15.482;2023-12-20T09:12:55;13.03;;;9.80;;
7495;SDS011;3789;47.064;15.482;2023-12-20T09:15:24;16.23;;;9.47;;
7495;SDS011;3789;47.064;15.482;2023-12-20T09:17:53;13.23;;;9.13;;
7495;SDS011;3789;47.064;15.482;2023-12-20T09:20:21;16.73;;;9.87;;
7495;SDS011;3789;47.064;15.482;2023-12-20T09:22:50;12.70;;;9.03;;
7495;SDS011;3789;47.064;15.482;2023-12-20T09:25:17;12.63;;;8.93;;
7495;SDS011;3789;47.064;15.482;2023-12-20T09:27:45;11.90;;;8.40;;
7495;SDS011;3789;47.064;15.482;2023-12-20T09:30:13;13.70;;;8.70;;
7495;SDS011;3789;47.064;15.482;2023-12-20T09:32:52;13.10;;;9.07;;
7495;SDS011;3789;47.064;15.482;2023-12-20T09:35:21;11.70;;;8.47;;
7495;SDS011;3789;47.064;15.482;2023-12-20T09:37:49;11.70;;;8.40;;
7495;SDS011;3789;47.064;15.482;2023-12-20T09:40:20;12.50;;;8.53;;
7495;SDS011;3789;47.064;15.482;2023-12-20T09:43:00;12.27;;;8.20;;
7495;SDS011;3789;47.064;15.482;2023-12-20T09:45:31;9.57;;;7.30;;
7495;SDS011;3789;47.064;15.482;2023-12-20T09:47:59;11.30;;;7.77;;
7495;SDS011;3789;47.064;15.482;2023-12-20T09:50:29;11.47;;;7.37;;
7495;SDS011;3789;47.064;15.482;2023-12-20T09:53:00;10.90;;;7.93;;
7495;SDS011;3789;47.064;15.482;2023-12-20T09:55:29;10.53;;;7.57;;
7495;SDS011;3789;47.064;15.482;2023-12-20T09:57:59;12.17;;;8.47;;
7495;SDS011;3789;47.064;15.482;2023-12-20T10:00:27;12.37;;;8.10;;
7495;SDS011;3789;47.064;15.482;2023-12-20T10:05:29;13.93;;;8.33;;
7495;SDS011;3789;47.064;15.482;2023-12-20T10:08:01;10.43;;;7.43;;
7495;SDS011;3789;47.064;15.482;2023-12-20T10:10:31;9.40;;;7.20;;
7495;SDS011;3789;47.064;15.482;2023-12-20T10:13:11;10.77;;;7.57;;
7495;SDS011;3789;47.064;15.482;2023-12-20T10:15:40;10.80;;;6.47;;
7495;SDS011;3789;47.064;15.482;2023-12-20T10:18:09;10.87;;;6.23;;
7495;SDS011;3789;47.064;15.482;2023-12-20T10:20:39;9.17;;;7.30;;
7495;SDS011;3789;47.064;15.482;2023-12-20T10:23:11;12.93;;;7.50;;
7495;SDS011;3789;47.064;15.482;2023-12-20T10:25:39;11.63;;;8.17;;
7495;SDS011;3789;47.064;15.482;2023-12-20T10:28:09;15.10;;;7.73;;
7495;SDS011;3789;47.064;15.482;2023-12-20T10:30:38;11.77;;;6.97;;
7495;SDS011;3789;47.064;15.482;2023-12-20T10:33:07;11.27;;;6.60;;
7495;SDS011;3789;47.064;15.482;2023-12-20T10:35:35;11.77;;;6.33;;
7495;SDS011;3789;47.064;15.482;2023-12-20T10:38:11;11.77;;;7.00;;
7495;SDS011;3789;47.064;15.482;2023-12-20T10:40:42;13.83;;;8.47;;
7495;SDS011;3789;47.064;15.482;2023-12-20T10:43:12;13.17;;;7.97;;
7495;SDS011;3789;47.064;15.482;2023-12-20T10:45:42;11.47;;;7.37;;
7495;SDS011;3789;47.064;15.482;2023-12-20T10:48:12;13.57;;;8.20;;
7495;SDS011;3789;47.064;15.482;2023-12-20T10:50:40;13.40;;;9.00;;
7495;SDS011;3789;47.064;15.482;2023-12-20T10:53:08;11.13;;;8.00;;
7495;SDS011;3789;47.064;15.482;2023-12-20T10:55:36;15.93;;;8.27;;
7495;SDS011;3789;47.064;15.482;2023-12-20T10:58:07;9.13;;;6.57;;
7495;SDS011;3789;47.064;15.482;2023-12-20T11:00:39;11.43;;;6.90;;
7495;SDS011;3789;47.064;15.482;2023-12-20T11:03:08;10.23;;;7.00;;
7495;SDS011;3789;47.064;15.482;2023-12-20T11:05:44;10.80;;;7.30;;
7495;SDS011;3789;47.064;15.482;2023-12-20T11:14:50;10.67;;;7.53;;
7495;SDS011;3789;47.064;15.482;2023-12-20T11:17:22;13.40;;;7.80;;
7495;SDS011;3789;47.064;15.482;2023-12-20T11:22:24;12.90;;;8.70;;
7495;SDS011;3789;47.064;15.482;2023-12-20T11:24:53;11.07;;;7.73;;
7495;SDS011;3789;47.064;15.482;2023-12-20T11:27:22;13.70;;;9.83;;
7495;SDS011;3789;47.064;15.482;2023-12-20T11:29:50;18.03;;;9.83;;
7495;SDS011;3789;47.064;15.482;2023-12-20T11:34:58;15.57;;;7.87;;
7495;SDS011;3789;47.064;15.482;2023-12-20T11:37:32;11.73;;;7.87;;
7495;SDS011;3789;47.064;15.482;2023-12-20T11:40:07;11.50;;;8.40;;
7495;SDS011;3789;47.064;15.482;2023-12-20T11:46:07;10.20;;;7.43;;
7495;SDS011;3789;47.064;15.482;2023-12-20T11:48:39;13.97;;;8.30;;
7495;SDS011;3789;47.064;15.482;2023-12-20T11:51:10;13.03;;;8.63;;
7495;SDS011;3789;47.064;15.482;2023-12-20T11:53:39;11.47;;;8.03;;
7495;SDS011;3789;47.064;15.482;2023-12-20T11:56:09;13.13;;;8.77;;
7495;SDS011;3789;47.064;15.482;2023-12-20T11:58:37;14.57;;;9.87;;
7495;SDS011;3789;47.064;15.482;2023-12-20T12:01:05;18.33;;;10.37;;
7495;SDS011;3789;47.064;15.482;2023-12-20T12:03:35;13.17;;;8.57;;
7495;SDS011;3789;47.064;15.482;2023-12-20T12:06:03;12.53;;;8.87;;
7495;SDS011;3789;47.064;15.482;2023-12-20T12:08:33;16.20;;;9.13;;
7495;SDS011;3789;47.064;15.482;2023-12-20T12:11:00;11.90;;;8.27;;
7495;SDS011;3789;47.064;15.482;2023-12-20T12:13:29;13.50;;;8.37;;
7495;SDS011;3789;47.064;15.482;2023-12-20T12:15:57;11.07;;;7.10;;
7495;SDS011;3789;47.064;15.482;2023-12-20T12:18:25;14.23;;;8.10;;
7495;SDS011;3789;47.064;15.482;2023-12-20T12:20:59;12.40;;;8.00;;
7495;SDS011;3789;47.064;15.482;2023-12-20T12:23:35;12.57;;;8.77;;
7495;SDS011;3789;47.064;15.482;2023-12-20T12:26:06;8.77;;;7.77;;
7495;SDS011;3789;47.064;15.482;2023-12-20T12:28:34;13.10;;;8.17;;
7495;SDS011;3789;47.064;15.482;2023-12-20T12:31:03;9.87;;;7.23;;
7495;SDS011;3789;47.064;15.482;2023-12-20T12:33:31;12.43;;;8.20;;
7495;SDS011;3789;47.064;15.482;2023-12-20T12:36:00;14.13;;;9.37;;
7495;SDS011;3789;47.064;15.482;2023-12-20T12:38:28;20.53;;;10.77;;
7495;SDS011;3789;47.064;15.482;2023-12-20T12:40:56;14.27;;;9.90;;
7495;SDS011;3789;47.064;15.482;2023-12-20T12:43:23;16.27;;;10.60;;
7495;SDS011;3789;47.064;15.482;2023-12-20T12:45:51;13.60;;;9.87;;
7495;SDS011;3789;47.064;15.482;2023-12-20T12:48:18;14.57;;;10.13;;
7495;SDS011;3789;47.064;15.482;2023-12-20T12:50:46;14.37;;;9.87;;
7495;SDS011;3789;47.064;15.482;2023-12-20T12:53:13;22.13;;;15.93;;
7495;SDS011;3789;47.064;15.482;2023-12-20T12:55:41;26.10;;;15.10;;
7495;SDS011;3789;47.064;15.482;2023-12-20T12:58:09;18.23;;;13.40;;
7495;SDS011;3789;47.064;15.482;2023-12-20T13:00:38;14.90;;;9.80;;
7495;SDS011;3789;47.064;15.482;2023-12-20T13:03:05;13.13;;;9.23;;
7495;SDS011;3789;47.064;15.482;2023-12-20T13:05:32;16.23;;;9.90;;
7495;SDS011;3789;47.064;15.482;2023-12-20T13:08:05;14.60;;;9.67;;
7495;SDS011;3789;47.064;15.482;2023-12-20T13:10:33;16.60;;;9.50;;
7495;SDS011;3789;47.064;15.482;2023-12-20T13:13:01;13.97;;;9.40;;
7495;SDS011;3789;47.064;15.482;2023-12-20T13:15:28;15.80;;;9.67;;
7495;SDS011;3789;47.064;15.482;2023-12-20T13:17:57;11.03;;;8.67;;
7495;SDS011;3789;47.064;15.482;2023-12-20T13:20:24;14.90;;;9.60;;
7495;SDS011;3789;47.064;15.482;2023-12-20T13:22:51;13.80;;;8.77;;
7495;SDS011;3789;47.064;15.482;2023-12-20T13:25:20;12.10;;;8.07;;
7495;SDS011;3789;47.064;15.482;2023-12-20T13:27:48;12.70;;;7.87;;
7495;SDS011;3789;47.064;15.482;2023-12-20T13:30:18;13.23;;;8.57;;
7495;SDS011;3789;47.064;15.482;2023-12-20T13:32:45;16.07;;;8.93;;
7495;SDS011;3789;47.064;15.482;2023-12-20T13:35:12;11.33;;;7.50;;
7495;SDS011;3789;47.064;15.482;2023-12-20T13:37:40;12.33;;;8.10;;
7495;SDS011;3789;47.064;15.482;2023-12-20T13:40:07;10.70;;;6.50;;
7495;SDS011;3789;47.064;15.482;2023-12-20T13:42:35;11.70;;;8.03;;
7495;SDS011;3789;47.064;15.482;2023-12-20T13:45:05;13.87;;;8.23;;
7495;SDS011;3789;47.064;15.482;2023-12-20T13:47:36;11.80;;;8.57;;
7495;SDS011;3789;47.064;15.482;2023-12-20T13:50:04;12.97;;;9.20;;
7495;SDS011;3789;47.064;15.482;2023-12-20T13:52:32;14.63;;;9.97;;
7495;SDS011;3789;47.064;15.482;2023-12-20T13:55:04;13.67;;;9.20;;
7495;SDS011;3789;47.064;15.482;2023-12-20T13:57:35;11.90;;;7.47;;
7495;SDS011;3789;47.064;15.482;2023-12-20T14:00:20;9.67;;;5.47;;
7495;SDS011;3789;47.064;15.482;2023-12-20T14:02:47;10.17;;;5.80;;
7495;SDS011;3789;47.064;15.482;2023-12-20T14:05:16;8.30;;;5.87;;
7495;SDS011;3789;47.064;15.482;2023-12-20T14:07:50;11.17;;;6.77;;
7495;SDS011;3789;47.064;15.482;2023-12-20T14:10:18;9.00;;;5.17;;
7495;SDS011;3789;47.064;15.482;2023-12-20T14:12:45;8.87;;;5.90;;
7495;SDS011;3789;47.064;15.482;2023-12-20T14:15:12;7.87;;;5.27;;
7495;SDS011;3789;47.064;15.482;2023-12-20T14:17:40;11.10;;;5.03;;
7495;SDS011;3789;47.064;15.482;2023-12-20T14:20:11;9.57;;;7.30;;
7495;SDS011;3789;47.064;15.482;2023-12-20T14:22:42;12.97;;;10.00;;
7495;SDS011;3789;47.064;15.482;2023-12-20T14:25:11;8.87;;;6.43;;
7495;SDS011;3789;47.064;15.482;2023-12-20T14:27:40;7.47;;;5.13;;
7495;SDS011;3789;47.064;15.482;2023-12-20T14:30:11;8.93;;;5.50;;
7495;SDS011;3789;47.064;15.482;2023-12-20T14:32:41;10.53;;;5.53;;
7495;SDS011;3789;47.064;15.482;2023-12-20T14:35:09;7.57;;;5.17;;
7495;SDS011;3789;47.064;15.482;2023-12-20T14:37:37;11.33;;;4.77;;
7495;SDS011;3789;47.064;15.482;2023-12-20T14:40:07;6.87;;;5.13;;
7495;SDS011;3789;47.064;15.482;2023-12-20T14:42:42;9.53;;;5.60;;
7495;SDS011;3789;47.064;15.482;2023-12-20T14:45:14;7.30;;;5.30;;
7495;SDS011;3789;47.064;15.482;2023-12-20T14:47:42;10.47;;;5.10;;
7495;SDS011;3789;47.064;15.482;2023-12-20T14:50:11;7.10;;;5.77;;
7495;SDS011;3789;47.064;15.482;2023-12-20T14:52:44;5.17;;;2.93;;
7495;SDS011;3789;47.064;15.482;2023-12-20T14:55:12;4.00;;;2.83;;
7495;SDS011;3789;47.064;15.482;2023-12-20T14:57:40;5.03;;;3.20;;
7495;SDS011;3789;47.064;15.482;2023-12-20T15:00:07;6.87;;;3.83;;
7495;SDS011;3789;47.064;15.482;2023-12-20T15:02:34;4.33;;;3.73;;
7495;SDS011;3789;47.064;15.482;2023-12-20T15:05:02;3.83;;;2.93;;
7495;SDS011;3789;47.064;15.482;2023-12-20T15:07:29;5.17;;;3.57;;
7495;SDS011;3789;47.064;15.482;2023-12-20T15:09:57;3.70;;;3.27;;
7495;SDS011;3789;47.064;15.482;2023-12-20T15:12:24;5.10;;;3.10;;
7495;SDS011;3789;47.064;15.482;2023-12-20T15:14:51;3.90;;;2.70;;
7495;SDS011;3789;47.064;15.482;2023-12-20T15:17:18;3.80;;;2.70;;
7495;SDS011;3789;47.064;15.482;2023-12-20T15:19:46;5.37;;;4.87;;
7495;SDS011;3789;47.064;15.482;2023-12-20T15:22:13;8.57;;;5.57;;
7495;SDS011;3789;47.064;15.482;2023-12-20T15:24:41;5.13;;;4.17;;
7495;SDS011;3789;47.064;15.482;2023-12-20T15:27:10;8.33;;;6.20;;
7495;SDS011;3789;47.064;15.482;2023-12-20T15:29:38;10.20;;;7.60;;
7495;SDS011;3789;47.064;15.482;2023-12-20T15:32:06;10.37;;;6.47;;
7495;SDS011;3789;47.064;15.482;2023-12-20T15:34:34;10.03;;;7.23;;